Time;durP1;ratioP1;P1;durP2;ratioP2;P2;SDS_P1;SDS_P2;PMS_P1;PMS_P2;Temp;Humidity;BMP_temperature;BMP_pressure;BME280_temperature;BME280_humidity;BME280_pressure;Samples;Min_cycle;Max_cycle;Signal;HPM_P1;HPM_P2
2022/01/29 00:01:19;;;;;;;7.77;5.30;;;0.60;99.90;;;;;;4967156;28;20245;-59
2022/01/29 00:03:45;;;;;;;8.73;5.83;;;0.60;99.90;;;;;;4962725;28;20353;-56
2022/01/29 00:06:10;;;;;;;10.87;5.63;;;0.50;99.90;;;;;;4964888;28;20212;-58
2022/01/29 00:08:36;;;;;;;12.80;5.87;;;0.50;99.90;;;;;;4973119;28;20180;-58
2022/01/29 00:11:14;;;;;;;12.90;5.67;;;0.40;99.90;;;;;;4957230;28;20506;-58
2022/01/29 00:13:39;;;;;;;8.80;5.60;;;0.40;99.90;;;;;;4959847;28;20187;-57
2022/01/29 00:16:05;;;;;;;10.00;5.87;;;0.40;99.90;;;;;;4969311;28;20459;-58
2022/01/29 00:18:32;;;;;;;8.37;5.50;;;0.30;99.90;;;;;;4976117;28;20192;-58
2022/01/29 00:20:57;;;;;;;8.60;4.90;;;0.30;99.90;;;;;;4987226;28;20346;-61
2022/01/29 00:23:23;;;;;;;11.00;6.20;;;0.30;99.90;;;;;;4987603;28;20419;-62
2022/01/29 00:25:49;;;;;;;7.20;5.20;;;0.30;99.90;;;;;;4992604;28;20231;-59
2022/01/29 00:28:15;;;;;;;12.13;5.27;;;0.30;99.90;;;;;;4982453;28;20272;-56
2022/01/29 00:30:43;;;;;;;13.47;5.63;;;0.30;99.90;;;;;;4963658;28;20212;-58
2022/01/29 00:33:09;;;;;;;8.77;6.00;;;0.30;99.90;;;;;;4970665;28;20195;-58
2022/01/29 00:35:35;;;;;;;10.53;5.77;;;0.30;99.90;;;;;;4961353;28;20494;-58
2022/01/29 00:38:01;;;;;;;9.60;6.77;;;0.20;99.90;;;;;;4968111;28;20419;-59
2022/01/29 00:40:28;;;;;;;10.60;5.67;;;0.20;99.90;;;;;;4964723;28;20439;-58
2022/01/29 00:42:54;;;;;;;13.20;6.10;;;0.20;99.90;;;;;;4969294;28;20514;-58
2022/01/29 00:45:19;;;;;;;10.30;6.07;;;0.20;99.90;;;;;;4967073;28;20666;-58
2022/01/29 00:47:45;;;;;;;12.10;5.90;;;0.20;99.90;;;;;;4961677;28;20943;-57
2022/01/29 00:50:12;;;;;;;8.07;4.60;;;0.20;99.90;;;;;;4959397;28;20180;-58
2022/01/29 00:52:40;;;;;;;12.23;5.73;;;0.10;99.90;;;;;;4967860;28;20676;-57
2022/01/29 00:55:07;;;;;;;9.00;5.07;;;0.10;99.90;;;;;;4954797;28;20490;-54
2022/01/29 00:57:35;;;;;;;12.17;5.10;;;0.10;99.90;;;;;;4969241;28;20458;-58
2022/01/29 01:00:01;;;;;;;9.50;5.50;;;0.00;99.90;;;;;;4967165;28;20455;-60
2022/01/29 01:02:26;;;;;;;8.10;5.70;;;0.00;99.90;;;;;;4973008;28;20475;-58
2022/01/29 01:04:52;;;;;;;11.00;5.40;;;0.00;99.90;;;;;;4964579;28;20230;-58
2022/01/29 01:07:18;;;;;;;12.70;5.60;;;0.00;99.90;;;;;;4961985;28;20175;-58
2022/01/29 01:09:43;;;;;;;13.50;6.00;;;-0.10;99.90;;;;;;4963094;28;20556;-56
2022/01/29 01:12:09;;;;;;;7.10;5.27;;;-0.10;99.90;;;;;;4965201;28;20183;-59
2022/01/29 01:14:37;;;;;;;8.30;5.70;;;-0.10;99.90;;;;;;4967162;28;20660;-59
2022/01/29 01:17:03;;;;;;;11.17;5.93;;;-0.10;99.90;;;;;;4968283;28;20218;-60
2022/01/29 01:19:29;;;;;;;10.03;6.23;;;-0.10;99.90;;;;;;4962280;28;20483;-60
2022/01/29 01:21:56;;;;;;;9.07;6.10;;;-0.20;99.90;;;;;;4963192;28;20439;-59
2022/01/29 01:24:22;;;;;;;10.63;5.97;;;-0.10;99.90;;;;;;4968572;28;20643;-59
2022/01/29 01:26:49;;;;;;;11.60;5.80;;;-0.10;99.90;;;;;;4977545;28;20428;-55
2022/01/29 01:29:15;;;;;;;9.63;6.00;;;-0.20;99.90;;;;;;4964343;28;20803;-57
2022/01/29 01:31:43;;;;;;;7.37;5.63;;;-0.20;99.90;;;;;;4965664;28;20931;-59
2022/01/29 01:34:09;;;;;;;9.13;5.43;;;-0.20;99.90;;;;;;4967807;28;20426;-58
2022/01/29 01:36:41;;;;;;;14.10;6.40;;;-0.20;99.90;;;;;;4956102;28;20459;-59
2022/01/29 01:39:10;;;;;;;8.70;6.03;;;-0.20;99.90;;;;;;4967990;28;20548;-59
2022/01/29 01:41:40;;;;;;;11.27;6.70;;;-0.20;99.90;;;;;;4963563;28;20431;-59
2022/01/29 01:44:09;;;;;;;9.90;5.90;;;-0.20;99.90;;;;;;4968835;28;20483;-57
2022/01/29 01:46:35;;;;;;;10.20;5.60;;;-0.20;99.90;;;;;;4959737;28;20431;-58
2022/01/29 01:49:01;;;;;;;6.90;5.63;;;-0.20;99.90;;;;;;4969409;28;20577;-57
2022/01/29 01:51:27;;;;;;;10.10;5.50;;;-0.10;99.90;;;;;;4968965;28;20442;-57
2022/01/29 01:53:53;;;;;;;9.03;5.57;;;-0.10;99.90;;;;;;4952588;28;20791;-58
2022/01/29 01:56:19;;;;;;;13.97;5.93;;;-0.10;99.90;;;;;;4957378;28;20208;-59
2022/01/29 01:58:44;;;;;;;11.80;6.93;;;-0.10;99.90;;;;;;4974257;28;20491;-60
2022/01/29 02:01:10;;;;;;;12.70;6.80;;;-0.10;99.90;;;;;;4986580;28;20188;-65
2022/01/29 02:03:36;;;;;;;11.40;6.87;;;-0.10;99.90;;;;;;4972411;28;20226;-57
2022/01/29 02:06:02;;;;;;;10.80;6.37;;;-0.10;99.90;;;;;;4970757;28;20239;-56
2022/01/29 02:08:27;;;;;;;11.17;6.80;;;-0.10;99.90;;;;;;4964844;28;20219;-58
2022/01/29 02:11:02;;;;;;;12.97;6.87;;;-0.10;99.90;;;;;;4972906;28;20424;-57
2022/01/29 02:13:28;;;;;;;12.33;6.50;;;-0.10;99.90;;;;;;4973740;28;20249;-60
2022/01/29 02:15:55;;;;;;;14.07;6.17;;;0.00;99.90;;;;;;4990472;28;20459;-57
2022/01/29 02:18:21;;;;;;;13.43;7.10;;;0.00;99.90;;;;;;4987942;28;20479;-59
2022/01/29 02:20:48;;;;;;;9.50;6.47;;;0.00;99.90;;;;;;4993762;28;20438;-59
2022/01/29 02:23:14;;;;;;;14.87;7.73;;;0.00;99.90;;;;;;4979091;28;20274;-57
2022/01/29 02:25:43;;;;;;;12.57;7.23;;;0.00;99.90;;;;;;4971571;28;20451;-57
2022/01/29 02:28:12;;;;;;;13.20;6.77;;;0.00;99.90;;;;;;4956710;28;20336;-55
2022/01/29 02:30:39;;;;;;;11.27;6.67;;;0.00;99.90;;;;;;4966012;28;20428;-61
2022/01/29 02:33:10;;;;;;;12.20;6.90;;;0.00;99.90;;;;;;4967840;28;20435;-59
2022/01/29 02:35:41;;;;;;;11.93;6.60;;;0.00;99.90;;;;;;4954322;28;20819;-57
2022/01/29 02:38:12;;;;;;;12.37;7.07;;;0.00;99.90;;;;;;4960600;28;20439;-57
2022/01/29 02:40:54;;;;;;;13.57;6.80;;;0.10;99.90;;;;;;4974585;28;20430;-59
2022/01/29 02:43:33;;;;;;;11.43;6.30;;;0.10;99.90;;;;;;4962889;28;21142;-57
2022/01/29 02:46:07;;;;;;;14.40;7.20;;;0.20;99.90;;;;;;4967715;28;20473;-57
2022/01/29 02:48:33;;;;;;;13.03;7.17;;;0.20;99.90;;;;;;4968116;28;20444;-57
2022/01/29 02:51:00;;;;;;;10.70;7.23;;;0.30;99.90;;;;;;4962204;28;20530;-56
2022/01/29 02:53:25;;;;;;;11.00;6.60;;;0.30;99.90;;;;;;4966694;28;20443;-58
2022/01/29 02:55:51;;;;;;;12.37;7.07;;;0.30;99.90;;;;;;4968606;28;20794;-59
2022/01/29 02:58:17;;;;;;;13.00;6.63;;;0.40;99.90;;;;;;4964962;28;20440;-60
2022/01/29 03:00:43;;;;;;;12.30;6.63;;;0.30;99.90;;;;;;4970019;28;20438;-56
2022/01/29 03:03:08;;;;;;;15.40;6.57;;;0.30;99.90;;;;;;4959274;28;20200;-59
2022/01/29 03:05:34;;;;;;;7.77;6.10;;;0.30;99.90;;;;;;4969016;28;20715;-63
2022/01/29 03:08:00;;;;;;;17.60;6.63;;;0.40;99.90;;;;;;4966974;28;20196;-58
2022/01/29 03:10:26;;;;;;;12.10;6.43;;;0.40;99.90;;;;;;4967841;28;20215;-58
2022/01/29 03:12:52;;;;;;;16.60;6.63;;;0.40;99.90;;;;;;4969368;28;20612;-58
2022/01/29 03:15:18;;;;;;;8.83;6.00;;;0.40;99.90;;;;;;4967489;28;20199;-58
2022/01/29 03:17:44;;;;;;;8.03;5.90;;;0.30;99.90;;;;;;4957659;28;20451;-58
2022/01/29 03:20:10;;;;;;;11.13;6.00;;;0.40;99.90;;;;;;4973401;28;20198;-55
2022/01/29 03:22:36;;;;;;;11.80;6.10;;;0.40;99.90;;;;;;4959841;28;20262;-58
2022/01/29 03:25:02;;;;;;;11.00;6.40;;;0.40;99.90;;;;;;4968731;28;20790;-58
2022/01/29 03:27:28;;;;;;;9.73;6.47;;;0.40;99.90;;;;;;4970803;28;20435;-58
2022/01/29 03:29:54;;;;;;;12.07;7.10;;;0.40;99.90;;;;;;4970627;28;20425;-57
2022/01/29 03:32:19;;;;;;;8.60;6.47;;;0.40;99.90;;;;;;4969315;28;20562;-57
2022/01/29 03:34:45;;;;;;;10.20;5.80;;;0.40;99.90;;;;;;4967492;28;20265;-56
2022/01/29 03:37:11;;;;;;;11.33;6.70;;;0.40;99.90;;;;;;4965542;28;20670;-58
2022/01/29 03:39:37;;;;;;;9.23;6.30;;;0.40;99.90;;;;;;4970375;28;20261;-57
2022/01/29 03:42:07;;;;;;;12.17;6.00;;;0.40;99.90;;;;;;4971308;28;20580;-58
2022/01/29 03:44:33;;;;;;;16.10;6.80;;;0.40;99.90;;;;;;4969292;28;20450;-58
2022/01/29 03:46:58;;;;;;;11.57;5.83;;;0.40;99.90;;;;;;4966705;28;20541;-56
2022/01/29 03:49:24;;;;;;;10.80;5.60;;;0.40;99.90;;;;;;4970439;28;20182;-59
2022/01/29 03:51:50;;;;;;;14.17;6.80;;;0.40;99.90;;;;;;4967640;28;20180;-59
2022/01/29 03:54:16;;;;;;;15.73;6.70;;;0.40;99.90;;;;;;4978175;28;20559;-59
2022/01/29 03:56:41;;;;;;;10.70;6.70;;;0.40;99.90;;;;;;4962831;28;20199;-57
2022/01/29 03:59:07;;;;;;;10.73;6.67;;;0.40;99.90;;;;;;4960228;28;20306;-59
2022/01/29 04:01:33;;;;;;;12.37;7.17;;;0.50;99.90;;;;;;4963885;28;20189;-58
2022/01/29 04:03:59;;;;;;;12.50;6.53;;;0.50;99.90;;;;;;4969047;28;20197;-58
2022/01/29 04:06:25;;;;;;;11.07;6.53;;;0.50;99.90;;;;;;5023517;23;20250;-61
2022/01/29 04:08:51;;;;;;;20.77;9.10;;;0.50;99.90;;;;;;5005469;28;20183;-60
2022/01/29 04:11:17;;;;;;;10.73;5.70;;;0.60;99.90;;;;;;5000701;28;20434;-61
2022/01/29 04:13:47;;;;;;;12.30;6.40;;;0.60;99.90;;;;;;4998237;28;20437;-60
2022/01/29 04:16:15;;;;;;;9.30;5.60;;;0.70;99.90;;;;;;4996567;28;20472;-60
2022/01/29 04:18:41;;;;;;;9.37;5.57;;;0.70;99.90;;;;;;4997800;28;20441;-60
2022/01/29 04:21:07;;;;;;;11.83;6.13;;;0.70;99.90;;;;;;5008599;28;20855;-61
2022/01/29 04:23:33;;;;;;;10.57;6.30;;;0.70;99.90;;;;;;5001172;28;20489;-61
2022/01/29 04:26:01;;;;;;;12.90;6.13;;;0.70;99.90;;;;;;5004121;28;20821;-61
2022/01/29 04:28:32;;;;;;;9.90;5.93;;;0.60;99.90;;;;;;5004818;28;20476;-60
2022/01/29 04:31:07;;;;;;;8.13;5.63;;;0.60;99.90;;;;;;5007083;28;20437;-60
2022/01/29 04:33:32;;;;;;;7.50;5.33;;;0.70;99.90;;;;;;5004169;28;20520;-60
2022/01/29 04:36:01;;;;;;;9.60;5.50;;;0.70;99.90;;;;;;5007218;28;20482;-61
2022/01/29 04:38:29;;;;;;;11.27;5.87;;;0.70;99.90;;;;;;4997797;28;20186;-60
2022/01/29 04:40:56;;;;;;;9.67;5.70;;;0.80;99.90;;;;;;5002234;28;20439;-61
2022/01/29 04:43:22;;;;;;;11.13;5.30;;;0.80;99.90;;;;;;4995671;28;20427;-60
2022/01/29 04:45:48;;;;;;;12.90;5.37;;;0.80;99.90;;;;;;4997095;28;20525;-60
2022/01/29 04:48:14;;;;;;;9.63;5.00;;;0.80;99.90;;;;;;5007012;28;20168;-61
2022/01/29 04:50:40;;;;;;;8.83;5.80;;;0.80;99.80;;;;;;4995669;28;20560;-61
2022/01/29 04:53:06;;;;;;;7.37;4.97;;;0.90;99.50;;;;;;4995110;28;20467;-61
2022/01/29 04:55:33;;;;;;;10.80;5.97;;;0.90;99.70;;;;;;5001919;28;20425;-60
2022/01/29 04:57:59;;;;;;;8.53;6.07;;;0.90;99.70;;;;;;5006891;28;21024;-61
2022/01/29 05:00:25;;;;;;;13.37;7.10;;;0.80;99.60;;;;;;5002025;28;20946;-61
2022/01/29 05:02:53;;;;;;;14.13;6.17;;;0.80;99.90;;;;;;5002364;28;20776;-61
2022/01/29 05:05:19;;;;;;;20.53;5.67;;;0.80;99.90;;;;;;4998265;28;20968;-61
2022/01/29 05:07:45;;;;;;;13.13;5.20;;;0.80;99.90;;;;;;4999600;28;20817;-61
2022/01/29 05:10:11;;;;;;;10.80;5.23;;;0.80;99.90;;;;;;5001534;28;20457;-61
2022/01/29 05:12:47;;;;;;;11.47;5.37;;;0.80;99.90;;;;;;5009133;28;20444;-61
2022/01/29 05:15:59;;;;;;;8.17;5.43;;;0.80;99.90;;;;;;5007419;28;20452;-61
2022/01/29 05:29:06;;;;;;;7.80;4.90;;;0.90;99.00;;;;;;5001372;28;20426;-61
2022/01/29 05:31:31;;;;;;;11.83;5.30;;;0.90;99.00;;;;;;5004464;28;20429;-61
2022/01/29 05:33:57;;;;;;;9.23;5.20;;;0.90;98.70;;;;;;4995251;28;20443;-61
2022/01/29 05:36:24;;;;;;;8.93;4.50;;;0.90;98.50;;;;;;5002904;28;20199;-61
2022/01/29 05:38:49;;;;;;;8.73;4.60;;;1.00;98.10;;;;;;5006421;28;20444;-61
2022/01/29 05:41:15;;;;;;;11.50;4.70;;;1.00;97.80;;;;;;5001318;28;20434;-61
2022/01/29 05:43:43;;;;;;;8.27;4.90;;;1.00;97.90;;;;;;4999528;28;20270;-61
2022/01/29 05:46:10;;;;;;;8.80;4.83;;;1.00;97.70;;;;;;5006155;28;20489;-61
2022/01/29 05:48:36;;;;;;;9.07;5.20;;;1.00;97.70;;;;;;4999508;28;20553;-61
2022/01/29 05:51:01;;;;;;;11.33;5.80;;;1.00;97.60;;;;;;5004978;28;20959;-61
2022/01/29 05:53:27;;;;;;;10.33;5.80;;;1.00;97.60;;;;;;5007393;28;20615;-64
2022/01/29 05:55:53;;;;;;;13.37;6.50;;;1.00;97.10;;;;;;4997920;28;20203;-61
2022/01/29 05:58:18;;;;;;;11.80;5.70;;;1.00;97.20;;;;;;5002669;28;20198;-61
2022/01/29 06:00:44;;;;;;;13.27;6.57;;;1.00;97.50;;;;;;5003998;28;20183;-61
2022/01/29 06:03:10;;;;;;;10.77;5.73;;;1.00;97.70;;;;;;5002164;28;20173;-62
2022/01/29 06:05:37;;;;;;;13.60;5.97;;;1.00;98.20;;;;;;4998601;28;20222;-61
2022/01/29 06:08:03;;;;;;;8.03;5.30;;;1.00;98.70;;;;;;5004649;28;21089;-61
2022/01/29 06:10:29;;;;;;;11.53;5.17;;;1.10;98.10;;;;;;5002058;28;21970;-62
2022/01/29 06:13:09;;;;;;;6.77;5.23;;;1.10;97.80;;;;;;4997424;28;20435;-61
2022/01/29 06:15:42;;;;;;;11.20;5.43;;;1.10;97.90;;;;;;5004114;28;20481;-62
2022/01/29 06:18:12;;;;;;;14.43;6.90;;;1.10;97.70;;;;;;4998345;28;20433;-62
2022/01/29 06:20:38;;;;;;;13.03;6.30;;;1.20;97.50;;;;;;4996259;28;20456;-61
2022/01/29 06:23:04;;;;;;;11.10;6.20;;;1.20;97.20;;;;;;5000553;28;20452;-61
2022/01/29 06:25:30;;;;;;;8.77;5.53;;;1.20;96.80;;;;;;4993109;28;20482;-61
2022/01/29 06:27:56;;;;;;;12.73;6.90;;;1.20;96.70;;;;;;4999379;28;20575;-60
2022/01/29 06:30:21;;;;;;;9.93;5.83;;;1.20;96.60;;;;;;5002137;28;20187;-61
2022/01/29 06:32:47;;;;;;;10.37;5.30;;;1.30;96.80;;;;;;5001937;28;20908;-61
2022/01/29 06:35:13;;;;;;;9.70;5.60;;;1.30;96.40;;;;;;5000560;28;20188;-61
2022/01/29 06:37:39;;;;;;;9.47;5.30;;;1.30;96.00;;;;;;4996617;28;20678;-61
2022/01/29 06:40:07;;;;;;;14.63;6.23;;;1.30;95.90;;;;;;5000429;28;20200;-61
2022/01/29 06:42:33;;;;;;;11.87;6.40;;;1.30;95.90;;;;;;5000046;28;20445;-61
2022/01/29 06:44:58;;;;;;;9.53;5.83;;;1.40;95.80;;;;;;4994999;28;20970;-62
2022/01/29 06:47:24;;;;;;;8.50;5.93;;;1.40;95.60;;;;;;5002246;28;20649;-62
2022/01/29 06:49:50;;;;;;;12.17;6.33;;;1.30;95.50;;;;;;4998918;28;20576;-61
2022/01/29 06:52:15;;;;;;;10.13;6.60;;;1.30;95.60;;;;;;4997552;28;20213;-61
2022/01/29 06:54:41;;;;;;;13.80;6.33;;;1.30;95.50;;;;;;5004368;28;20190;-62
2022/01/29 06:57:07;;;;;;;13.33;6.30;;;1.30;95.70;;;;;;4998597;28;21467;-62
2022/01/29 06:59:33;;;;;;;13.60;6.63;;;1.30;95.80;;;;;;5003646;28;20702;-60
2022/01/29 07:01:58;;;;;;;18.40;6.83;;;1.30;96.10;;;;;;5006145;28;20201;-61
2022/01/29 07:04:24;;;;;;;15.50;7.50;;;1.40;96.20;;;;;;4999980;28;20195;-61
2022/01/29 07:06:49;;;;;;;14.10;7.97;;;1.40;96.20;;;;;;5003215;28;20218;-60
2022/01/29 07:09:15;;;;;;;13.17;7.07;;;1.40;96.20;;;;;;4997915;28;20237;-60
2022/01/29 07:11:43;;;;;;;12.27;6.33;;;1.40;96.10;;;;;;5001771;28;20241;-61
2022/01/29 07:14:11;;;;;;;10.80;6.57;;;1.40;96.20;;;;;;5003507;28;20172;-61
2022/01/29 07:16:38;;;;;;;11.03;6.37;;;1.40;96.30;;;;;;4997024;28;20469;-61
2022/01/29 07:19:03;;;;;;;12.73;8.07;;;1.40;96.50;;;;;;5000018;28;20460;-61
2022/01/29 07:21:30;;;;;;;13.80;7.40;;;1.40;96.50;;;;;;5002334;28;20437;-62
2022/01/29 07:23:55;;;;;;;16.80;8.97;;;1.40;96.70;;;;;;4997099;28;20180;-60
2022/01/29 07:26:21;;;;;;;13.23;7.80;;;1.40;97.00;;;;;;4997082;28;20553;-61
2022/01/29 07:28:47;;;;;;;13.37;6.83;;;1.40;96.90;;;;;;4999449;28;20530;-61
2022/01/29 07:31:13;;;;;;;12.73;8.07;;;1.40;96.70;;;;;;5002105;28;20746;-60
2022/01/29 07:33:38;;;;;;;12.50;8.10;;;1.50;96.60;;;;;;5003275;28;20443;-61
2022/01/29 07:36:05;;;;;;;13.17;7.47;;;1.50;96.70;;;;;;5003626;28;20207;-62
2022/01/29 07:38:30;;;;;;;11.73;8.10;;;1.50;96.20;;;;;;5000190;28;20202;-62
2022/01/29 07:40:56;;;;;;;17.40;9.07;;;1.50;95.90;;;;;;4999145;28;20467;-61
2022/01/29 07:43:22;;;;;;;15.90;8.90;;;1.60;95.70;;;;;;4995540;28;20698;-62
2022/01/29 07:45:48;;;;;;;15.70;8.50;;;1.60;95.50;;;;;;4997635;28;20196;-62
2022/01/29 07:48:13;;;;;;;12.63;8.00;;;1.60;95.30;;;;;;5000232;28;20419;-62
2022/01/29 07:50:39;;;;;;;20.03;7.57;;;1.60;95.10;;;;;;5005187;28;20510;-60
2022/01/29 07:53:04;;;;;;;12.03;7.47;;;1.60;94.60;;;;;;4998394;28;20742;-61
2022/01/29 07:55:31;;;;;;;12.50;6.97;;;1.60;94.30;;;;;;5002505;28;20206;-61
2022/01/29 07:58:07;;;;;;;14.17;8.27;;;1.60;94.00;;;;;;5002300;28;20234;-61
2022/01/29 08:00:33;;;;;;;13.83;7.43;;;1.60;93.60;;;;;;5001110;28;20433;-60
2022/01/29 08:02:59;;;;;;;17.13;8.30;;;1.60;93.70;;;;;;5000836;28;20425;-60
2022/01/29 08:05:25;;;;;;;14.27;8.37;;;1.60;93.30;;;;;;5001605;28;20473;-60
2022/01/29 08:07:50;;;;;;;21.90;8.60;;;1.70;93.10;;;;;;5001184;28;20195;-62
2022/01/29 08:10:16;;;;;;;14.00;8.03;;;1.60;92.80;;;;;;5001020;28;20220;-61
2022/01/29 08:12:41;;;;;;;16.93;9.13;;;1.60;92.90;;;;;;4997975;28;20190;-62
2022/01/29 08:15:08;;;;;;;15.17;8.50;;;1.60;92.90;;;;;;4999487;28;20719;-61
2022/01/29 08:17:33;;;;;;;15.87;8.97;;;1.60;93.00;;;;;;5001295;28;20241;-61
2022/01/29 08:19:59;;;;;;;16.03;9.20;;;1.60;93.00;;;;;;4998194;28;20437;-59
2022/01/29 08:22:25;;;;;;;17.60;8.70;;;1.70;94.90;;;;;;4998944;28;20181;-63
2022/01/29 08:24:54;;;;;;;20.40;10.57;;;1.70;94.60;;;;;;4998176;28;20212;-61
2022/01/29 08:27:20;;;;;;;17.63;10.10;;;1.70;92.80;;;;;;5003123;28;20537;-61
2022/01/29 08:29:46;;;;;;;17.73;9.73;;;1.80;92.60;;;;;;4996725;28;20437;-62
2022/01/29 08:32:13;;;;;;;15.77;9.77;;;1.80;91.40;;;;;;5002776;28;20422;-61
2022/01/29 08:34:40;;;;;;;17.67;9.80;;;1.80;91.30;;;;;;4998669;28;20489;-61
2022/01/29 08:37:06;;;;;;;18.63;9.60;;;1.80;90.80;;;;;;5005908;28;20979;-61
2022/01/29 08:39:33;;;;;;;14.63;9.40;;;1.90;90.30;;;;;;5008135;28;20479;-62
2022/01/29 08:41:59;;;;;;;22.90;10.00;;;1.90;90.20;;;;;;4997625;28;20960;-62
2022/01/29 08:44:25;;;;;;;17.10;8.73;;;1.90;90.20;;;;;;5000322;28;20430;-62
2022/01/29 08:46:51;;;;;;;18.50;9.50;;;2.00;90.00;;;;;;4995926;28;20456;-62
2022/01/29 08:49:17;;;;;;;22.27;10.40;;;2.00;89.80;;;;;;4997292;28;20445;-61
2022/01/29 08:51:43;;;;;;;20.87;10.23;;;2.00;89.20;;;;;;4998659;28;20458;-62
2022/01/29 08:54:08;;;;;;;21.67;8.93;;;2.00;88.80;;;;;;4993386;28;20433;-63
2022/01/29 08:56:34;;;;;;;19.20;9.93;;;2.00;88.40;;;;;;4998859;28;20259;-63
2022/01/29 08:59:00;;;;;;;23.73;10.37;;;2.00;88.10;;;;;;4995897;28;20241;-61
2022/01/29 09:01:26;;;;;;;16.37;9.00;;;2.10;87.90;;;;;;4995254;28;20183;-59
2022/01/29 09:03:51;;;;;;;15.73;8.90;;;2.10;87.80;;;;;;4994738;28;20812;-62
2022/01/29 09:06:17;;;;;;;13.17;8.30;;;2.20;86.90;;;;;;5000271;28;20471;-62
2022/01/29 09:08:48;;;;;;;18.60;10.13;;;2.20;85.60;;;;;;4996786;28;20179;-62
2022/01/29 09:11:15;;;;;;;17.47;9.27;;;2.30;85.10;;;;;;4992958;28;20199;-62
2022/01/29 09:13:40;;;;;;;18.90;9.20;;;2.40;84.10;;;;;;4990588;28;20787;-62
2022/01/29 09:16:06;;;;;;;13.87;8.03;;;2.40;83.10;;;;;;4997135;28;20459;-62
2022/01/29 09:18:32;;;;;;;15.57;9.67;;;2.50;83.10;;;;;;4996554;28;20520;-61
2022/01/29 09:20:57;;;;;;;12.43;7.80;;;2.60;80.80;;;;;;4996070;28;20173;-62
2022/01/29 09:23:23;;;;;;;15.50;8.17;;;2.60;77.40;;;;;;4999944;28;20265;-61
2022/01/29 09:25:49;;;;;;;16.90;8.03;;;2.70;76.40;;;;;;5001815;28;20295;-62
2022/01/29 09:28:15;;;;;;;20.50;8.53;;;2.80;75.50;;;;;;5000583;28;20438;-63
2022/01/29 09:30:41;;;;;;;12.30;6.53;;;2.90;73.40;;;;;;5003926;28;20206;-60
2022/01/29 09:33:07;;;;;;;12.10;8.00;;;2.90;72.50;;;;;;5004621;28;20176;-61
2022/01/29 09:35:33;;;;;;;15.03;7.80;;;2.90;71.90;;;;;;5004321;28;20454;-63
2022/01/29 09:37:58;;;;;;;13.73;7.93;;;3.00;71.40;;;;;;4998018;28;20572;-62
2022/01/29 09:40:24;;;;;;;12.37;7.57;;;3.10;70.80;;;;;;4999770;28;20184;-63
2022/01/29 09:42:51;;;;;;;15.37;8.00;;;3.10;70.10;;;;;;5000458;28;20435;-62
2022/01/29 09:45:20;;;;;;;18.80;8.30;;;3.10;69.70;;;;;;5001099;28;20751;-62
2022/01/29 09:47:47;;;;;;;12.70;7.40;;;3.20;69.90;;;;;;5000433;28;20450;-62
2022/01/29 09:50:15;;;;;;;11.13;7.03;;;3.20;68.60;;;;;;5000703;28;20471;-62
2022/01/29 09:52:41;;;;;;;12.93;8.10;;;3.30;67.30;;;;;;5019601;28;20850;-63
2022/01/29 09:55:08;;;;;;;17.73;9.30;;;3.50;66.70;;;;;;5003491;28;20502;-62
2022/01/29 09:57:34;;;;;;;11.97;7.00;;;3.70;66.20;;;;;;5004342;28;20200;-62
2022/01/29 10:00:00;;;;;;;10.97;7.23;;;3.80;65.00;;;;;;5004492;28;20486;-62
2022/01/29 10:02:26;;;;;;;12.60;7.33;;;3.90;64.00;;;;;;5006437;28;20468;-62
2022/01/29 10:04:58;;;;;;;12.73;6.70;;;3.90;63.30;;;;;;5006039;28;20486;-62
2022/01/29 10:07:26;;;;;;;13.23;6.87;;;3.80;62.80;;;;;;4998992;28;20448;-63
2022/01/29 10:09:53;;;;;;;11.90;8.00;;;3.80;62.90;;;;;;5008377;28;20513;-63
2022/01/29 10:12:28;;;;;;;11.97;7.77;;;3.70;62.70;;;;;;5006341;28;20415;-62
2022/01/29 10:15:01;;;;;;;12.70;7.20;;;3.60;63.00;;;;;;5007309;28;20970;-62
2022/01/29 10:17:43;;;;;;;12.50;7.50;;;3.50;63.30;;;;;;5003999;28;20474;-62
2022/01/29 10:20:23;;;;;;;13.97;7.27;;;3.50;64.90;;;;;;5003637;28;20434;-62
2022/01/29 10:22:50;;;;;;;12.80;7.50;;;3.70;65.60;;;;;;5007158;28;20488;-61
2022/01/29 10:25:28;;;;;;;17.50;7.43;;;4.00;64.90;;;;;;5008642;28;20454;-61
2022/01/29 10:28:14;;;;;;;14.03;6.70;;;4.20;63.40;;;;;;5004742;28;20452;-62
2022/01/29 10:30:49;;;;;;;11.23;6.27;;;4.50;62.20;;;;;;5010025;28;20432;-62
2022/01/29 10:33:30;;;;;;;10.47;6.60;;;4.70;60.80;;;;;;5009853;28;20438;-61
2022/01/29 10:35:57;;;;;;;13.97;7.40;;;4.80;59.70;;;;;;5003982;28;20460;-63
2022/01/29 10:38:25;;;;;;;13.80;7.83;;;4.90;59.10;;;;;;5005206;28;20424;-62
2022/01/29 10:41:09;;;;;;;12.90;6.00;;;5.00;58.00;;;;;;5001081;28;20430;-63
2022/01/29 10:43:35;;;;;;;14.80;6.80;;;5.10;57.90;;;;;;5003791;28;20439;-63
2022/01/29 10:46:01;;;;;;;8.67;5.47;;;5.30;57.00;;;;;;5001545;28;20466;-62
2022/01/29 10:48:57;;;;;;;10.93;6.50;;;5.60;57.00;;;;;;5001289;28;20502;-62
2022/01/29 10:51:23;;;;;;;8.20;5.00;;;5.90;55.50;;;;;;4989094;28;20855;-59
2022/01/29 10:53:50;;;;;;;9.20;4.53;;;6.10;54.80;;;;;;4999237;28;20437;-62
2022/01/29 10:56:16;;;;;;;12.30;5.50;;;6.20;53.40;;;;;;5002462;28;20490;-64
2022/01/29 10:58:43;;;;;;;7.80;4.60;;;6.30;52.20;;;;;;5001361;28;20525;-63
2022/01/29 11:01:20;;;;;;;7.77;4.37;;;6.20;51.70;;;;;;4998371;28;20572;-63
2022/01/29 11:03:46;;;;;;;6.33;4.37;;;6.10;51.20;;;;;;4993512;28;20508;-63
2022/01/29 11:06:21;;;;;;;10.40;5.67;;;6.10;51.20;;;;;;4999482;28;20482;-62
2022/01/29 11:08:48;;;;;;;7.40;4.20;;;6.00;50.70;;;;;;4995055;28;20431;-63
2022/01/29 11:11:14;;;;;;;7.93;4.70;;;6.00;51.30;;;;;;4995984;28;20941;-63
2022/01/29 11:13:42;;;;;;;5.30;3.77;;;5.90;51.40;;;;;;4996207;28;20448;-62
2022/01/29 11:16:09;;;;;;;11.93;4.00;;;5.90;51.30;;;;;;4993677;28;20475;-61
2022/01/29 11:18:35;;;;;;;10.43;4.40;;;5.90;51.00;;;;;;4991445;28;20448;-62
2022/01/29 11:21:02;;;;;;;7.20;4.30;;;5.90;50.90;;;;;;4999141;28;20454;-63
2022/01/29 11:23:29;;;;;;;6.70;3.97;;;5.90;51.60;;;;;;4999500;28;20447;-61
2022/01/29 11:25:58;;;;;;;9.30;4.40;;;6.00;51.20;;;;;;5003055;28;20927;-62
2022/01/29 11:28:27;;;;;;;7.03;4.33;;;6.10;51.30;;;;;;5000815;28;20432;-64
2022/01/29 11:31:14;;;;;;;5.83;4.07;;;6.30;50.70;;;;;;4999026;28;20455;-63
2022/01/29 11:33:58;;;;;;;4.80;3.80;;;6.70;50.40;;;;;;4997030;28;20447;-62
2022/01/29 11:36:48;;;;;;;6.13;3.80;;;7.00;48.80;;;;;;4994099;28;20460;-64
2022/01/29 11:39:23;;;;;;;4.90;3.40;;;7.30;48.30;;;;;;4995175;28;20804;-63
2022/01/29 11:42:15;;;;;;;8.13;3.90;;;7.70;48.10;;;;;;4997320;28;20460;-64
2022/01/29 11:44:42;;;;;;;6.80;3.77;;;7.80;47.00;;;;;;4998394;28;20481;-65
2022/01/29 11:47:26;;;;;;;4.03;3.30;;;8.00;47.40;;;;;;4997106;28;20525;-64
2022/01/29 11:50:12;;;;;;;5.90;3.80;;;8.30;46.70;;;;;;4997928;28;20436;-65
2022/01/29 11:53:02;;;;;;;6.50;3.33;;;8.30;46.20;;;;;;4994479;28;20501;-63
2022/01/29 11:55:35;;;;;;;5.73;3.90;;;8.30;45.90;;;;;;4995982;28;20471;-62
2022/01/29 11:58:18;;;;;;;5.80;3.47;;;8.50;46.40;;;;;;4994398;28;21118;-62
2022/01/29 12:00:48;;;;;;;5.50;3.30;;;8.70;46.20;;;;;;4998324;28;20431;-61
2022/01/29 12:03:32;;;;;;;7.00;4.20;;;8.90;46.30;;;;;;4999054;28;20435;-61
2022/01/29 12:06:14;;;;;;;6.43;3.90;;;8.90;45.80;;;;;;4996085;28;21148;-62
2022/01/29 12:09:06;;;;;;;;;;;;;;;;;;;;;
2022/01/29 12:11:34;;;;;;;4.90;2.83;;;8.30;46.30;;;;;;4990745;28;21233;-64
2022/01/29 12:14:16;;;;;;;4.70;3.30;;;8.10;46.90;;;;;;4996912;28;20921;-65
2022/01/29 12:16:51;;;;;;;4.60;2.97;;;7.80;47.30;;;;;;4996496;28;20463;-66
2022/01/29 12:19:39;;;;;;;7.70;3.17;;;7.70;47.90;;;;;;4995331;28;20431;-63
2022/01/29 12:22:14;;;;;;;5.50;3.30;;;7.50;48.00;;;;;;4997670;28;21030;-65
2022/01/29 12:24:51;;;;;;;4.77;3.47;;;7.40;48.20;;;;;;4996701;28;20427;-64
2022/01/29 12:27:17;;;;;;;4.00;2.63;;;7.40;48.50;;;;;;4999027;28;20436;-64
2022/01/29 12:29:43;;;;;;;4.03;2.80;;;7.40;48.70;;;;;;4998890;28;20431;-65
2022/01/29 12:32:10;;;;;;;5.80;2.90;;;7.50;48.90;;;;;;4999681;28;20485;-65
2022/01/29 12:34:36;;;;;;;6.23;3.33;;;7.80;48.50;;;;;;5001565;28;20852;-65
2022/01/29 12:37:11;;;;;;;11.63;2.90;;;8.10;48.30;;;;;;4997850;28;21047;-64
2022/01/29 12:39:43;;;;;;;5.67;2.50;;;8.60;48.30;;;;;;5006051;28;20435;-63
2022/01/29 12:44:52;;;;;;;5.63;3.03;;;9.00;47.50;;;;;;4999789;28;20439;-64
2022/01/29 12:47:29;;;;;;;6.03;3.20;;;8.90;48.10;;;;;;5004271;28;20794;-64
2022/01/29 12:49:55;;;;;;;3.63;3.20;;;8.90;48.70;;;;;;5002604;28;20506;-64
2022/01/29 12:52:21;;;;;;;4.87;3.13;;;9.00;48.70;;;;;;4996379;28;21039;-62
2022/01/29 12:54:57;;;;;;;5.07;3.10;;;9.00;49.00;;;;;;4996632;28;20898;-62
2022/01/29 12:57:24;;;;;;;4.73;3.47;;;8.90;48.70;;;;;;5001603;28;20729;-63
2022/01/29 12:59:50;;;;;;;5.57;3.77;;;8.80;49.00;;;;;;4996311;28;20787;-65
2022/01/29 13:02:16;;;;;;;6.63;3.83;;;8.60;49.30;;;;;;4995769;28;20442;-62
2022/01/29 13:04:46;;;;;;;5.47;3.27;;;8.40;49.80;;;;;;4996212;28;20189;-64
2022/01/29 13:07:12;;;;;;;6.93;3.20;;;8.30;50.20;;;;;;5001177;28;20977;-64
2022/01/29 13:09:38;;;;;;;9.23;3.10;;;8.20;51.20;;;;;;4995491;28;20468;-65